sensor_id;sensor_type;location;lat;lon;timestamp;pressure;altitude;pressure_sealevel;temperature;humidity
66945;BME280;53853;51.982;5.928;2023-04-07T00:00:42;101301.25;;;11.12;78.96
66945;BME280;53853;51.982;5.928;2023-04-07T00:03:11;101309.25;;;11.12;79.21
66945;BME280;53853;51.982;5.928;2023-04-07T00:05:41;101313.75;;;11.11;79.19
66945;BME280;53853;51.982;5.928;2023-04-07T00:08:11;101312.66;;;11.14;79.19
66945;BME280;53853;51.982;5.928;2023-04-07T00:10:44;101308.84;;;11.16;78.88
66945;BME280;53853;51.982;5.928;2023-04-07T00:13:14;101318.53;;;11.17;78.91
66945;BME280;53853;51.982;5.928;2023-04-07T00:15:43;101316.69;;;11.18;78.76
66945;BME280;53853;51.982;5.928;2023-04-07T00:18:13;101314.91;;;11.18;78.71
66945;BME280;53853;51.982;5.928;2023-04-07T00:20:43;101312.38;;;11.17;78.78
66945;BME280;53853;51.982;5.928;2023-04-07T00:23:13;101320.22;;;11.18;78.52
66945;BME280;53853;51.982;5.928;2023-04-07T00:25:47;101314.16;;;11.16;78.53
66945;BME280;53853;51.982;5.928;2023-04-07T00:28:17;101320.50;;;11.15;78.42
66945;BME280;53853;51.982;5.928;2023-04-07T00:30:47;101316.97;;;11.15;78.44
66945;BME280;53853;51.982;5.928;2023-04-07T00:33:17;101326.13;;;11.12;78.58
66945;BME280;53853;51.982;5.928;2023-04-07T00:35:47;101324.44;;;11.11;78.82
66945;BME280;53853;51.982;5.928;2023-04-07T00:38:17;101325.13;;;11.13;78.67
66945;BME280;53853;51.982;5.928;2023-04-07T00:40:49;101319.25;;;11.10;78.72
66945;BME280;53853;51.982;5.928;2023-04-07T00:43:19;101318.69;;;11.06;78.80
66945;BME280;53853;51.982;5.928;2023-04-07T00:45:49;101326.00;;;11.04;78.92
66945;BME280;53853;51.982;5.928;2023-04-07T00:48:19;101322.59;;;11.02;78.79
66945;BME280;53853;51.982;5.928;2023-04-07T00:50:50;101319.09;;;11.01;78.61
66945;BME280;53853;51.982;5.928;2023-04-07T00:53:19;101318.69;;;10.96;78.88
66945;BME280;53853;51.982;5.928;2023-04-07T00:55:52;101324.88;;;10.97;78.91
66945;BME280;53853;51.982;5.928;2023-04-07T00:58:22;101326.56;;;10.98;79.19
66945;BME280;53853;51.982;5.928;2023-04-07T01:00:57;101314.06;;;10.98;78.97
66945;BME280;53853;51.982;5.928;2023-04-07T01:03:35;101311.38;;;10.98;78.89
66945;BME280;53853;51.982;5.928;2023-04-07T01:06:07;101311.53;;;10.97;78.90
66945;BME280;53853;51.982;5.928;2023-04-07T01:08:47;101313.50;;;10.95;78.79
66945;BME280;53853;51.982;5.928;2023-04-07T01:11:23;101308.44;;;10.92;78.61
66945;BME280;53853;51.982;5.928;2023-04-07T01:13:57;101322.88;;;10.89;78.98
66945;BME280;53853;51.982;5.928;2023-04-07T01:16:44;101317.84;;;10.86;78.73
66945;BME280;53853;51.982;5.928;2023-04-07T01:19:32;101320.63;;;10.84;78.52
66945;BME280;53853;51.982;5.928;2023-04-07T01:22:08;101321.91;;;10.80;78.76
66945;BME280;53853;51.982;5.928;2023-04-07T01:24:53;101327.41;;;10.79;78.78
66945;BME280;53853;51.982;5.928;2023-04-07T01:27:37;101312.50;;;10.76;78.83
66945;BME280;53853;51.982;5.928;2023-04-07T01:30:15;101320.50;;;10.76;78.56
66945;BME280;53853;51.982;5.928;2023-04-07T01:32:49;101316.41;;;10.72;78.62
66945;BME280;53853;51.982;5.928;2023-04-07T01:35:20;101316.28;;;10.64;78.88
66945;BME280;53853;51.982;5.928;2023-04-07T01:37:52;101319.94;;;10.63;79.08
66945;BME280;53853;51.982;5.928;2023-04-07T01:40:23;101321.75;;;10.62;78.99
66945;BME280;53853;51.982;5.928;2023-04-07T01:42:55;101313.19;;;10.59;79.08
66945;BME280;53853;51.982;5.928;2023-04-07T01:45:28;101316.13;;;10.56;79.02
66945;BME280;53853;51.982;5.928;2023-04-07T01:47:59;101323.28;;;10.55;79.24
66945;BME280;53853;51.982;5.928;2023-04-07T01:50:29;101324.25;;;10.54;79.23
66945;BME280;53853;51.982;5.928;2023-04-07T01:53:00;101331.28;;;10.55;79.41
66945;BME280;53853;51.982;5.928;2023-04-07T01:55:30;101326.78;;;10.56;79.49
66945;BME280;53853;51.982;5.928;2023-04-07T01:58:04;101322.72;;;10.51;79.56
66945;BME280;53853;51.982;5.928;2023-04-07T02:00:39;101324.81;;;10.48;79.85
66945;BME280;53853;51.982;5.928;2023-04-07T02:03:19;101323.69;;;10.50;79.62
66945;BME280;53853;51.982;5.928;2023-04-07T02:05:53;101327.94;;;10.53;79.45
66945;BME280;53853;51.982;5.928;2023-04-07T02:08:28;101327.06;;;10.52;79.47
66945;BME280;53853;51.982;5.928;2023-04-07T02:11:00;101326.22;;;10.52;79.30
66945;BME280;53853;51.982;5.928;2023-04-07T02:13:37;101332.25;;;10.54;79.42
66945;BME280;53853;51.982;5.928;2023-04-07T02:16:13;101327.94;;;10.53;78.94
66945;BME280;53853;51.982;5.928;2023-04-07T02:18:46;101334.91;;;10.54;79.08
66945;BME280;53853;51.982;5.928;2023-04-07T02:21:16;101344.63;;;10.55;79.07
66945;BME280;53853;51.982;5.928;2023-04-07T02:23:48;101339.41;;;10.54;78.90
66945;BME280;53853;51.982;5.928;2023-04-07T02:26:19;101338.84;;;10.50;78.97
66945;BME280;53853;51.982;5.928;2023-04-07T02:28:49;101341.66;;;10.48;78.45
66945;BME280;53853;51.982;5.928;2023-04-07T02:31:21;101343.59;;;10.46;78.77
66945;BME280;53853;51.982;5.928;2023-04-07T02:33:51;101342.91;;;10.44;78.42
66945;BME280;53853;51.982;5.928;2023-04-07T02:36:21;101336.00;;;10.42;78.73
66945;BME280;53853;51.982;5.928;2023-04-07T02:38:52;101340.78;;;10.38;78.51
66945;BME280;53853;51.982;5.928;2023-04-07T02:41:21;101341.59;;;10.39;78.60
66945;BME280;53853;51.982;5.928;2023-04-07T02:43:52;101337.41;;;10.36;78.91
66945;BME280;53853;51.982;5.928;2023-04-07T02:46:25;101341.75;;;10.37;78.85
66945;BME280;53853;51.982;5.928;2023-04-07T02:48:55;101333.88;;;10.36;78.47
66945;BME280;53853;51.982;5.928;2023-04-07T02:51:25;101343.00;;;10.33;78.70
66945;BME280;53853;51.982;5.928;2023-04-07T02:53:55;101339.63;;;10.31;78.71
66945;BME280;53853;51.982;5.928;2023-04-07T02:56:24;101341.28;;;10.32;78.66
66945;BME280;53853;51.982;5.928;2023-04-07T02:58:54;101348.22;;;10.35;78.81
66945;BME280;53853;51.982;5.928;2023-04-07T03:01:27;101352.41;;;10.37;78.88
66945;BME280;53853;51.982;5.928;2023-04-07T03:03:57;101354.22;;;10.37;78.80
66945;BME280;53853;51.982;5.928;2023-04-07T03:06:27;101358.16;;;10.32;78.69
66945;BME280;53853;51.982;5.928;2023-04-07T03:09:23;101354.59;;;10.32;78.82
66945;BME280;53853;51.982;5.928;2023-04-07T03:11:53;101364.44;;;10.31;78.85
66945;BME280;53853;51.982;5.928;2023-04-07T03:14:24;101362.59;;;10.32;78.77
66945;BME280;53853;51.982;5.928;2023-04-07T03:16:57;101362.34;;;10.35;79.08
66945;BME280;53853;51.982;5.928;2023-04-07T03:19:27;101366.72;;;10.36;78.85
66945;BME280;53853;51.982;5.928;2023-04-07T03:21:57;101366.59;;;10.38;78.74
66945;BME280;53853;51.982;5.928;2023-04-07T03:24:27;101363.78;;;10.39;78.78
66945;BME280;53853;51.982;5.928;2023-04-07T03:26:57;101361.25;;;10.38;78.69
66945;BME280;53853;51.982;5.928;2023-04-07T03:29:48;101355.94;;;10.38;78.28
66945;BME280;53853;51.982;5.928;2023-04-07T03:32:20;101359.56;;;10.37;78.53
66945;BME280;53853;51.982;5.928;2023-04-07T03:34:50;101355.94;;;10.38;78.64
66945;BME280;53853;51.982;5.928;2023-04-07T03:37:20;101351.44;;;10.38;78.53
66945;BME280;53853;51.982;5.928;2023-04-07T03:39:50;101359.28;;;10.40;78.49
66945;BME280;53853;51.982;5.928;2023-04-07T03:42:26;101357.59;;;10.39;78.55
66945;BME280;53853;51.982;5.928;2023-04-07T03:45:01;101355.06;;;10.37;78.56
66945;BME280;53853;51.982;5.928;2023-04-07T03:47:36;101350.59;;;10.38;78.85
66945;BME280;53853;51.982;5.928;2023-04-07T03:50:07;101357.59;;;10.39;78.92
66945;BME280;53853;51.982;5.928;2023-04-07T03:52:48;101354.78;;;10.40;78.89
66945;BME280;53853;51.982;5.928;2023-04-07T03:55:30;101361.81;;;10.41;78.84
66945;BME280;53853;51.982;5.928;2023-04-07T03:58:08;101362.66;;;10.42;78.66
66945;BME280;53853;51.982;5.928;2023-04-07T04:00:38;101367.16;;;10.41;78.77
66945;BME280;53853;51.982;5.928;2023-04-07T04:03:13;101364.75;;;10.38;78.53
66945;BME280;53853;51.982;5.928;2023-04-07T04:06:03;101365.72;;;10.37;78.85
66945;BME280;53853;51.982;5.928;2023-04-07T04:08:33;101368.38;;;10.37;78.90
66945;BME280;53853;51.982;5.928;2023-04-07T04:11:03;101369.38;;;10.36;78.95
66945;BME280;53853;51.982;5.928;2023-04-07T04:13:40;101376.50;;;10.36;79.10
66945;BME280;53853;51.982;5.928;2023-04-07T04:16:10;101374.72;;;10.36;79.02
66945;BME280;53853;51.982;5.928;2023-04-07T04:18:43;101373.25;;;10.32;79.12
66945;BME280;53853;51.982;5.928;2023-04-07T04:21:15;101370.59;;;10.32;79.18
66945;BME280;53853;51.982;5.928;2023-04-07T04:23:46;101382.97;;;10.33;79.28
66945;BME280;53853;51.982;5.928;2023-04-07T04:26:17;101384.81;;;10.32;79.10
66945;BME280;53853;51.982;5.928;2023-04-07T04:28:52;101377.66;;;10.33;79.40
66945;BME280;53853;51.982;5.928;2023-04-07T04:31:23;101374.25;;;10.31;79.58
66945;BME280;53853;51.982;5.928;2023-04-07T04:33:55;101381.25;;;10.32;79.58
66945;BME280;53853;51.982;5.928;2023-04-07T04:36:25;101382.00;;;10.34;79.66
66945;BME280;53853;51.982;5.928;2023-04-07T04:38:59;101380.75;;;10.38;79.60
66945;BME280;53853;51.982;5.928;2023-04-07T04:41:29;101388.88;;;10.37;79.45
66945;BME280;53853;51.982;5.928;2023-04-07T04:44:01;101390.69;;;10.36;79.42
66945;BME280;53853;51.982;5.928;2023-04-07T04:46:31;101384.38;;;10.37;79.50
66945;BME280;53853;51.982;5.928;2023-04-07T04:49:04;101397.56;;;10.39;79.48
66945;BME280;53853;51.982;5.928;2023-04-07T04:51:35;101400.81;;;10.42;79.46
66945;BME280;53853;51.982;5.928;2023-04-07T04:54:13;101394.63;;;10.42;79.32
66945;BME280;53853;51.982;5.928;2023-04-07T04:56:44;101396.19;;;10.44;79.27
66945;BME280;53853;51.982;5.928;2023-04-07T04:59:14;101400.56;;;10.45;79.33
66945;BME280;53853;51.982;5.928;2023-04-07T05:01:56;101407.81;;;10.43;79.00
66945;BME280;53853;51.982;5.928;2023-04-07T05:04:28;101399.81;;;10.43;78.83
66945;BME280;53853;51.982;5.928;2023-04-07T05:07:07;101410.34;;;10.45;78.86
66945;BME280;53853;51.982;5.928;2023-04-07T05:09:37;101405.00;;;10.45;79.03
66945;BME280;53853;51.982;5.928;2023-04-07T05:12:08;101411.22;;;10.45;79.12
66945;BME280;53853;51.982;5.928;2023-04-07T05:14:43;101417.50;;;10.44;79.20
66945;BME280;53853;51.982;5.928;2023-04-07T05:17:13;101412.88;;;10.46;79.21
66945;BME280;53853;51.982;5.928;2023-04-07T05:19:46;101415.13;;;10.51;79.10
66945;BME280;53853;51.982;5.928;2023-04-07T05:22:31;101417.66;;;10.52;79.05
66945;BME280;53853;51.982;5.928;2023-04-07T05:25:03;101416.97;;;10.50;78.92
66945;BME280;53853;51.982;5.928;2023-04-07T05:27:33;101417.66;;;10.52;78.70
66945;BME280;53853;51.982;5.928;2023-04-07T05:30:11;101417.94;;;10.49;78.62
66945;BME280;53853;51.982;5.928;2023-04-07T05:32:41;101417.94;;;10.49;77.88
66945;BME280;53853;51.982;5.928;2023-04-07T05:35:27;101422.69;;;10.46;77.97
66945;BME280;53853;51.982;5.928;2023-04-07T05:37:58;101422.84;;;10.44;78.12
66945;BME280;53853;51.982;5.928;2023-04-07T05:40:28;101420.16;;;10.44;78.23
66945;BME280;53853;51.982;5.928;2023-04-07T05:43:01;101431.53;;;10.46;78.21
66945;BME280;53853;51.982;5.928;2023-04-07T05:45:33;101428.88;;;10.46;77.94
66945;BME280;53853;51.982;5.928;2023-04-07T05:48:03;101436.72;;;10.48;77.97
66945;BME280;53853;51.982;5.928;2023-04-07T05:50:57;101424.53;;;10.45;77.71
66945;BME280;53853;51.982;5.928;2023-04-07T05:53:27;101425.50;;;10.44;77.73
66945;BME280;53853;51.982;5.928;2023-04-07T05:55:57;101424.66;;;10.44;78.15
66945;BME280;53853;51.982;5.928;2023-04-07T05:58:47;101430.81;;;10.44;78.24
66945;BME280;53853;51.982;5.928;2023-04-07T06:01:19;101429.00;;;10.45;78.30
66945;BME280;53853;51.982;5.928;2023-04-07T06:03:48;101432.25;;;10.48;78.46
66945;BME280;53853;51.982;5.928;2023-04-07T06:06:24;101438.16;;;10.52;78.48
66945;BME280;53853;51.982;5.928;2023-04-07T06:08:54;101451.47;;;10.52;78.39
66945;BME280;53853;51.982;5.928;2023-04-07T06:11:26;101452.31;;;10.52;78.38
66945;BME280;53853;51.982;5.928;2023-04-07T06:13:56;101451.22;;;10.55;78.52
66945;BME280;53853;51.982;5.928;2023-04-07T06:16:25;101446.03;;;10.54;78.14
66945;BME280;53853;51.982;5.928;2023-04-07T06:18:56;101449.50;;;10.54;78.42
66945;BME280;53853;51.982;5.928;2023-04-07T06:21:31;101452.75;;;10.58;78.67
66945;BME280;53853;51.982;5.928;2023-04-07T06:24:05;101451.09;;;10.57;78.07
66945;BME280;53853;51.982;5.928;2023-04-07T06:26:35;101445.75;;;10.57;78.30
66945;BME280;53853;51.982;5.928;2023-04-07T06:29:05;101452.75;;;10.58;77.78
66945;BME280;53853;51.982;5.928;2023-04-07T06:31:36;101456.41;;;10.57;77.83
66945;BME280;53853;51.982;5.928;2023-04-07T06:34:06;101457.38;;;10.56;77.94
66945;BME280;53853;51.982;5.928;2023-04-07T06:36:38;101454.56;;;10.57;77.91
66945;BME280;53853;51.982;5.928;2023-04-07T06:39:08;101458.06;;;10.58;77.79
66945;BME280;53853;51.982;5.928;2023-04-07T06:41:38;101465.09;;;10.59;77.92
66945;BME280;53853;51.982;5.928;2023-04-07T06:44:09;101465.94;;;10.59;77.79
66945;BME280;53853;51.982;5.928;2023-04-07T06:46:39;101464.84;;;10.62;78.14
66945;BME280;53853;51.982;5.928;2023-04-07T06:49:10;101468.06;;;10.65;78.19
66945;BME280;53853;51.982;5.928;2023-04-07T06:51:42;101472.44;;;10.66;77.96
66945;BME280;53853;51.982;5.928;2023-04-07T06:54:12;101473.88;;;10.71;78.26
66945;BME280;53853;51.982;5.928;2023-04-07T06:56:42;101477.22;;;10.73;78.17
66945;BME280;53853;51.982;5.928;2023-04-07T06:59:12;101474.16;;;10.77;78.03
66945;BME280;53853;51.982;5.928;2023-04-07T07:01:42;101478.94;;;10.83;77.79
66945;BME280;53853;51.982;5.928;2023-04-07T07:04:12;101482.06;;;10.88;77.70
66945;BME280;53853;51.982;5.928;2023-04-07T07:06:44;101487.69;;;10.95;77.78
66945;BME280;53853;51.982;5.928;2023-04-07T07:09:14;101485.00;;;10.95;76.99
66945;BME280;53853;51.982;5.928;2023-04-07T07:11:44;101490.22;;;10.97;77.32
66945;BME280;53853;51.982;5.928;2023-04-07T07:14:14;101490.50;;;11.03;77.53
66945;BME280;53853;51.982;5.928;2023-04-07T07:16:44;101491.09;;;11.07;77.33
66945;BME280;53853;51.982;5.928;2023-04-07T07:19:14;101495.16;;;11.11;77.49
66945;BME280;53853;51.982;5.928;2023-04-07T07:21:46;101496.56;;;11.15;77.57
66945;BME280;53853;51.982;5.928;2023-04-07T07:24:16;101498.09;;;11.18;77.30
66945;BME280;53853;51.982;5.928;2023-04-07T07:26:46;101498.41;;;11.24;77.46
66945;BME280;53853;51.982;5.928;2023-04-07T07:29:16;101505.16;;;11.29;76.92
66945;BME280;53853;51.982;5.928;2023-04-07T07:31:46;101506.16;;;11.28;76.43
66945;BME280;53853;51.982;5.928;2023-04-07T07:34:16;101516.66;;;11.29;76.67
66945;BME280;53853;51.982;5.928;2023-04-07T07:36:48;101510.78;;;11.35;76.80
66945;BME280;53853;51.982;5.928;2023-04-07T07:39:18;101512.47;;;11.36;76.36
66945;BME280;53853;51.982;5.928;2023-04-07T07:41:48;101520.06;;;11.41;75.90
66945;BME280;53853;51.982;5.928;2023-04-07T07:44:17;101515.00;;;11.48;75.90
66945;BME280;53853;51.982;5.928;2023-04-07T07:46:48;101517.25;;;11.52;75.40
66945;BME280;53853;51.982;5.928;2023-04-07T07:49:18;101520.06;;;11.60;75.03
66945;BME280;53853;51.982;5.928;2023-04-07T07:51:51;101517.69;;;11.67;74.13
66945;BME280;53853;51.982;5.928;2023-04-07T07:54:21;101521.34;;;11.76;74.15
66945;BME280;53853;51.982;5.928;2023-04-07T07:56:50;101517.28;;;11.82;74.44
66945;BME280;53853;51.982;5.928;2023-04-07T07:59:20;101517.00;;;11.85;73.38
66945;BME280;53853;51.982;5.928;2023-04-07T08:01:50;101521.88;;;11.89;73.58
66945;BME280;53853;51.982;5.928;2023-04-07T08:04:20;101528.09;;;11.90;73.79
66945;BME280;53853;51.982;5.928;2023-04-07T08:06:53;101527.72;;;11.94;73.31
66945;BME280;53853;51.982;5.928;2023-04-07T08:09:24;101531.06;;;11.96;71.55
66945;BME280;53853;51.982;5.928;2023-04-07T08:11:54;101533.16;;;12.03;71.89
66945;BME280;53853;51.982;5.928;2023-04-07T08:14:24;101534.56;;;12.07;71.79
66945;BME280;53853;51.982;5.928;2023-04-07T08:16:53;101540.03;;;12.05;71.21
66945;BME280;53853;51.982;5.928;2023-04-07T08:19:23;101543.56;;;12.06;71.87
66945;BME280;53853;51.982;5.928;2023-04-07T08:21:56;101546.81;;;12.00;71.17
66945;BME280;53853;51.982;5.928;2023-04-07T08:24:27;101544.28;;;11.98;71.61
66945;BME280;53853;51.982;5.928;2023-04-07T08:26:56;101550.75;;;11.95;70.85
66945;BME280;53853;51.982;5.928;2023-04-07T08:29:27;101550.88;;;11.94;71.21
66945;BME280;53853;51.982;5.928;2023-04-07T08:31:57;101553.56;;;11.94;71.07
66945;BME280;53853;51.982;5.928;2023-04-07T08:34:27;101555.38;;;11.84;71.22
66945;BME280;53853;51.982;5.928;2023-04-07T08:36:59;101555.50;;;11.82;71.70
66945;BME280;53853;51.982;5.928;2023-04-07T08:39:29;101566.31;;;11.81;72.07
66945;BME280;53853;51.982;5.928;2023-04-07T08:42:00;101563.94;;;11.77;72.49
66945;BME280;53853;51.982;5.928;2023-04-07T08:44:30;101564.75;;;11.78;73.05
66945;BME280;53853;51.982;5.928;2023-04-07T08:47:01;101570.97;;;11.78;73.44
66945;BME280;53853;51.982;5.928;2023-04-07T08:49:36;101578.84;;;11.80;73.72
66945;BME280;53853;51.982;5.928;2023-04-07T08:52:14;101578.25;;;11.76;73.25
66945;BME280;53853;51.982;5.928;2023-04-07T08:54:47;101579.41;;;11.74;72.90
66945;BME280;53853;51.982;5.928;2023-04-07T08:57:17;101571.25;;;11.75;73.09
66945;BME280;53853;51.982;5.928;2023-04-07T08:59:47;101583.59;;;11.76;73.17
66945;BME280;53853;51.982;5.928;2023-04-07T09:02:18;101581.50;;;11.80;73.59
66945;BME280;53853;51.982;5.928;2023-04-07T09:04:49;101582.34;;;11.81;73.88
66945;BME280;53853;51.982;5.928;2023-04-07T09:07:21;101579.41;;;11.84;73.81
66945;BME280;53853;51.982;5.928;2023-04-07T09:09:51;101579.25;;;11.85;74.01
66945;BME280;53853;51.982;5.928;2023-04-07T09:12:21;101576.59;;;11.85;73.57
66945;BME280;53853;51.982;5.928;2023-04-07T09:14:52;101582.34;;;11.90;73.70
66945;BME280;53853;51.982;5.928;2023-04-07T09:17:24;101586.72;;;11.91;73.89
66945;BME280;53853;51.982;5.928;2023-04-07T09:19:56;101587.69;;;11.90;74.15
66945;BME280;53853;51.982;5.928;2023-04-07T09:22:40;101587.97;;;11.87;74.40
66945;BME280;53853;51.982;5.928;2023-04-07T09:25:13;101592.19;;;11.90;74.57
66945;BME280;53853;51.982;5.928;2023-04-07T09:27:58;101591.53;;;11.98;73.98
66945;BME280;53853;51.982;5.928;2023-04-07T09:30:29;101600.50;;;12.06;73.82
66945;BME280;53853;51.982;5.928;2023-04-07T09:33:00;101599.13;;;12.12;73.70
66945;BME280;53853;51.982;5.928;2023-04-07T09:35:30;101600.22;;;12.19;73.32
66945;BME280;53853;51.982;5.928;2023-04-07T09:38:05;101605.00;;;12.25;73.61
66945;BME280;53853;51.982;5.928;2023-04-07T09:40:35;101603.03;;;12.27;73.52
66945;BME280;53853;51.982;5.928;2023-04-07T09:43:05;101601.06;;;12.29;73.92
66945;BME280;53853;51.982;5.928;2023-04-07T09:45:35;101601.91;;;12.30;73.69
66945;BME280;53853;51.982;5.928;2023-04-07T09:48:06;101596.84;;;12.27;72.66
66945;BME280;53853;51.982;5.928;2023-04-07T09:50:40;101605.28;;;12.22;72.64
66945;BME280;53853;51.982;5.928;2023-04-07T09:53:17;101604.88;;;12.17;71.14
66945;BME280;53853;51.982;5.928;2023-04-07T09:55:49;101607.28;;;12.10;71.29
66945;BME280;53853;51.982;5.928;2023-04-07T09:58:19;101606.41;;;12.10;71.71
66945;BME280;53853;51.982;5.928;2023-04-07T10:00:49;101609.94;;;12.10;71.69
66945;BME280;53853;51.982;5.928;2023-04-07T10:03:19;101608.09;;;12.11;71.73
66945;BME280;53853;51.982;5.928;2023-04-07T10:05:50;101615.97;;;12.12;71.65
66945;BME280;53853;51.982;5.928;2023-04-07T10:08:23;101613.19;;;12.14;71.40
66945;BME280;53853;51.982;5.928;2023-04-07T10:10:53;101613.59;;;12.19;71.31
66945;BME280;53853;51.982;5.928;2023-04-07T10:13:25;101614.44;;;12.20;71.36
66945;BME280;53853;51.982;5.928;2023-04-07T10:19:25;101612.59;;;12.30;71.42
66945;BME280;53853;51.982;5.928;2023-04-07T10:21:59;101616.09;;;12.30;71.49
66945;BME280;53853;51.982;5.928;2023-04-07T10:24:53;101611.63;;;12.31;71.52
66945;BME280;53853;51.982;5.928;2023-04-07T10:27:30;101624.13;;;12.30;71.53
66945;BME280;53853;51.982;5.928;2023-04-07T10:30:01;101614.59;;;12.28;71.52
66945;BME280;53853;51.982;5.928;2023-04-07T10:32:36;101625.84;;;12.22;70.82
66945;BME280;53853;51.982;5.928;2023-04-07T10:35:15;101620.78;;;12.19;70.57
66945;BME280;53853;51.982;5.928;2023-04-07T10:38:10;101631.47;;;12.19;70.23
66945;BME280;53853;51.982;5.928;2023-04-07T10:40:45;101621.75;;;12.18;70.45
66945;BME280;53853;51.982;5.928;2023-04-07T10:43:38;101635.97;;;12.18;70.62
66945;BME280;53853;51.982;5.928;2023-04-07T10:46:10;101637.63;;;12.19;70.37
66945;BME280;53853;51.982;5.928;2023-04-07T10:48:40;101637.34;;;12.22;70.77
66945;BME280;53853;51.982;5.928;2023-04-07T10:51:15;101643.41;;;12.24;71.06
66945;BME280;53853;51.982;5.928;2023-04-07T10:57:08;101647.34;;;12.20;69.50
66945;BME280;53853;51.982;5.928;2023-04-07T10:59:40;101644.69;;;12.20;70.12
66945;BME280;53853;51.982;5.928;2023-04-07T11:02:31;101650.03;;;12.20;70.68
66945;BME280;53853;51.982;5.928;2023-04-07T11:05:02;101654.41;;;12.21;71.02
66945;BME280;53853;51.982;5.928;2023-04-07T11:07:49;101657.63;;;12.25;71.02
66945;BME280;53853;51.982;5.928;2023-04-07T11:10:21;101657.91;;;12.22;71.76
66945;BME280;53853;51.982;5.928;2023-04-07T11:13:04;101658.59;;;12.24;72.05
66945;BME280;53853;51.982;5.928;2023-04-07T11:15:35;101656.63;;;12.26;72.47
66945;BME280;53853;51.982;5.928;2023-04-07T11:18:16;101659.00;;;12.29;72.81
66945;BME280;53853;51.982;5.928;2023-04-07T11:20:50;101666.47;;;12.35;73.04
66945;BME280;53853;51.982;5.928;2023-04-07T11:23:22;101658.03;;;12.40;72.57
66945;BME280;53853;51.982;5.928;2023-04-07T11:25:58;101665.34;;;12.38;72.21
66945;BME280;53853;51.982;5.928;2023-04-07T11:28:32;101665.78;;;12.33;72.45
66945;BME280;53853;51.982;5.928;2023-04-07T11:31:02;101664.94;;;12.32;72.33
66945;BME280;53853;51.982;5.928;2023-04-07T11:33:32;101670.56;;;12.29;72.27
66945;BME280;53853;51.982;5.928;2023-04-07T11:36:06;101677.16;;;12.25;72.70
66945;BME280;53853;51.982;5.928;2023-04-07T11:38:37;101668.44;;;12.23;72.85
66945;BME280;53853;51.982;5.928;2023-04-07T11:41:11;101672.22;;;12.21;73.19
66945;BME280;53853;51.982;5.928;2023-04-07T11:43:43;101673.94;;;12.22;73.25
66945;BME280;53853;51.982;5.928;2023-04-07T11:46:14;101679.41;;;12.20;73.18
66945;BME280;53853;51.982;5.928;2023-04-07T11:48:45;101681.41;;;12.18;72.87
66945;BME280;53853;51.982;5.928;2023-04-07T11:51:16;101676.88;;;12.19;72.40
66945;BME280;53853;51.982;5.928;2023-04-07T11:53:46;101691.06;;;12.19;72.07
66945;BME280;53853;51.982;5.928;2023-04-07T11:56:16;101688.81;;;12.14;71.22
66945;BME280;53853;51.982;5.928;2023-04-07T11:58:51;101691.22;;;12.08;72.06
66945;BME280;53853;51.982;5.928;2023-04-07T12:01:22;101690.66;;;12.14;72.55
66945;BME280;53853;51.982;5.928;2023-04-07T12:03:57;101692.22;;;12.17;72.88
66945;BME280;53853;51.982;5.928;2023-04-07T12:06:28;101698.13;;;12.20;72.77
66945;BME280;53853;51.982;5.928;2023-04-07T12:09:00;101705.03;;;12.32;73.31
66945;BME280;53853;51.982;5.928;2023-04-07T12:11:31;101708.53;;;12.43;73.55
66945;BME280;53853;51.982;5.928;2023-04-07T12:14:04;101702.34;;;12.52;73.23
66945;BME280;53853;51.982;5.928;2023-04-07T12:16:37;101708.09;;;12.57;72.59
66945;BME280;53853;51.982;5.928;2023-04-07T12:19:08;101709.81;;;12.58;72.85
66945;BME280;53853;51.982;5.928;2023-04-07T12:21:38;101706.56;;;12.64;71.67
66945;BME280;53853;51.982;5.928;2023-04-07T12:24:09;101711.19;;;12.62;71.88
66945;BME280;53853;51.982;5.928;2023-04-07T12:26:39;101710.19;;;12.73;72.54
66945;BME280;53853;51.982;5.928;2023-04-07T12:29:12;101711.06;;;12.83;71.18
66945;BME280;53853;51.982;5.928;2023-04-07T12:31:42;101721.47;;;12.86;71.00
66945;BME280;53853;51.982;5.928;2023-04-07T12:34:12;101715.69;;;12.91;70.92
66945;BME280;53853;51.982;5.928;2023-04-07T12:36:42;101719.06;;;12.93;70.53
66945;BME280;53853;51.982;5.928;2023-04-07T12:39:12;101721.44;;;12.96;70.01
66945;BME280;53853;51.982;5.928;2023-04-07T12:41:42;101726.78;;;12.96;69.62
66945;BME280;53853;51.982;5.928;2023-04-07T12:44:15;101722.44;;;12.95;69.94
66945;BME280;53853;51.982;5.928;2023-04-07T12:46:45;101723.16;;;12.97;70.67
66945;BME280;53853;51.982;5.928;2023-04-07T12:49:15;101722.13;;;12.98;71.08
66945;BME280;53853;51.982;5.928;2023-04-07T12:51:45;101729.34;;;12.98;70.30
66945;BME280;53853;51.982;5.928;2023-04-07T12:54:15;101729.03;;;13.01;70.08
66945;BME280;53853;51.982;5.928;2023-04-07T12:56:45;101732.16;;;12.96;69.52
66945;BME280;53853;51.982;5.928;2023-04-07T12:59:17;101731.31;;;12.96;69.90
66945;BME280;53853;51.982;5.928;2023-04-07T13:01:47;101734.13;;;12.94;69.27
66945;BME280;53853;51.982;5.928;2023-04-07T13:04:17;101739.78;;;12.91;69.50
66945;BME280;53853;51.982;5.928;2023-04-07T13:06:47;101733.41;;;12.92;69.63
66945;BME280;53853;51.982;5.928;2023-04-07T13:09:17;101730.31;;;12.97;70.37
66945;BME280;53853;51.982;5.928;2023-04-07T13:11:47;101733.69;;;13.09;70.66
66945;BME280;53853;51.982;5.928;2023-04-07T13:14:19;101737.88;;;13.11;69.78
66945;BME280;53853;51.982;5.928;2023-04-07T13:16:55;101735.78;;;13.15;69.77
66945;BME280;53853;51.982;5.928;2023-04-07T13:19:28;101734.19;;;13.22;70.13
66945;BME280;53853;51.982;5.928;2023-04-07T13:21:58;101732.94;;;13.26;68.70
66945;BME280;53853;51.982;5.928;2023-04-07T13:24:28;101739.56;;;13.22;67.87